createdAt,value
2018-06-20T00:00:29.104Z,101832.69
2018-06-20T00:02:55.064Z,101837.99
2018-06-20T00:05:21.053Z,101836.46
2018-06-20T00:07:47.066Z,101835.35
2018-06-20T00:10:13.027Z,101831.70
2018-06-20T00:12:39.005Z,101823.91
2018-06-20T00:15:04.978Z,101822.78
2018-06-20T00:17:31.023Z,101820.69
2018-06-20T00:19:56.976Z,101820.13
2018-06-20T00:22:22.947Z,101821.25
2018-06-20T00:24:48.923Z,101819.22
2018-06-20T00:27:14.923Z,101813.42
2018-06-20T00:29:40.893Z,101818.94
2018-06-20T00:32:06.904Z,101813.63
2018-06-20T00:34:32.931Z,101812.09
2018-06-20T00:36:58.894Z,101815.29
2018-06-20T00:39:24.864Z,101809.78
2018-06-20T00:41:50.841Z,101818.52
2018-06-20T00:44:16.819Z,101817.06
2018-06-20T00:46:42.780Z,101812.01
2018-06-20T00:49:08.753Z,101813.91
2018-06-20T00:51:34.727Z,101804.91
2018-06-20T00:54:00.707Z,101807.98
2018-06-20T00:56:26.680Z,101804.47
2018-06-20T00:58:52.648Z,101804.21
2018-06-20T01:01:18.603Z,101796.80
2018-06-20T01:03:44.604Z,101801.89
2018-06-20T01:06:10.562Z,101795.13
2018-06-20T01:08:36.547Z,101794.84
2018-06-20T01:11:02.502Z,101792.40
2018-06-20T01:13:28.462Z,101790.03
2018-06-20T01:15:54.436Z,101792.20
2018-06-20T01:18:20.395Z,101792.61
2018-06-20T01:20:46.356Z,101785.75
2018-06-20T01:23:12.330Z,101785.14
2018-06-20T01:25:38.289Z,101781.71
2018-06-20T01:28:04.284Z,101784.77
2018-06-20T01:30:30.266Z,101785.89
2018-06-20T01:32:56.256Z,101784.77
2018-06-20T01:35:22.217Z,101784.23
2018-06-20T01:37:48.201Z,101786.27
2018-06-20T01:40:14.156Z,101786.17
2018-06-20T01:42:40.129Z,101779.27
2018-06-20T01:45:06.083Z,101782.84
2018-06-20T01:47:32.094Z,101780.88
2018-06-20T01:49:58.069Z,101785.56
2018-06-20T01:52:24.037Z,101780.45
2018-06-20T01:54:50.036Z,101779.42
2018-06-20T01:57:16.038Z,101773.33
2018-06-20T01:59:42.006Z,101771.50
2018-06-20T02:02:07.984Z,101776.59
2018-06-20T02:04:33.972Z,101773.95
2018-06-20T02:06:59.932Z,101773.69
2018-06-20T02:09:25.899Z,101772.07
2018-06-20T02:11:51.844Z,101763.21
2018-06-20T02:14:17.841Z,101768.22
2018-06-20T02:16:43.889Z,101765.55
2018-06-20T02:19:09.840Z,101762.92
2018-06-20T02:21:35.816Z,101757.08
2018-06-20T02:24:01.790Z,101762.72
2018-06-20T02:26:27.760Z,101756.45
2018-06-20T02:28:53.729Z,101760.85
2018-06-20T02:31:19.752Z,101754.42
2018-06-20T02:33:45.706Z,101751.17
2018-06-20T02:36:11.692Z,101751.20
2018-06-20T02:38:37.662Z,101747.49
2018-06-20T02:41:03.643Z,101744.30
2018-06-20T02:43:29.605Z,101746.94
2018-06-20T02:45:55.577Z,101747.00
2018-06-20T02:48:21.535Z,101743.22
2018-06-20T02:50:47.589Z,101745.05
2018-06-20T02:53:13.585Z,101740.16
2018-06-20T02:55:39.553Z,101744.50
2018-06-20T02:58:05.528Z,101741.42
2018-06-20T03:00:31.482Z,101747.86
2018-06-20T03:02:57.474Z,101747.72
2018-06-20T03:05:23.442Z,101747.09
2018-06-20T03:07:49.412Z,101742.81
2018-06-20T03:10:15.404Z,101745.97
2018-06-20T03:12:41.363Z,101740.86
2018-06-20T03:15:07.340Z,101737.47
2018-06-20T03:17:33.289Z,101739.92
2018-06-20T03:19:59.262Z,101736.61
2018-06-20T03:22:25.254Z,101739.22
2018-06-20T03:24:51.242Z,101737.24
2018-06-20T03:27:17.248Z,101739.63
2018-06-20T03:29:43.215Z,101737.47
2018-06-20T03:32:09.174Z,101738.63
2018-06-20T03:34:35.142Z,101737.30
2018-06-20T03:37:01.125Z,101736.97
2018-06-20T03:39:27.097Z,101734.16
2018-06-20T03:41:53.050Z,101728.81
2018-06-20T03:44:19.072Z,101731.73
2018-06-20T03:46:45.047Z,101727.19
2018-06-20T03:49:11.012Z,101730.88
2018-06-20T03:51:37.006Z,101724.67
2018-06-20T03:54:02.980Z,101729.51
2018-06-20T03:56:28.987Z,101720.65
2018-06-20T03:58:55.099Z,101724.47
2018-06-20T04:01:21.073Z,101719.03
2018-06-20T04:03:47.024Z,101716.50
2018-06-20T04:06:13.001Z,101713.39
2018-06-20T04:08:38.953Z,101718.53
2018-06-20T04:11:04.936Z,101724.67
2018-06-20T04:13:30.938Z,101716.91
2018-06-20T04:15:56.868Z,101719.52
2018-06-20T04:18:22.935Z,101723.30
2018-06-20T04:20:48.882Z,101726.98
2018-06-20T04:23:14.869Z,101728.19
2018-06-20T04:25:40.901Z,101718.40
2018-06-20T04:28:06.939Z,101724.87
2018-06-20T04:30:32.827Z,101714.22
2018-06-20T04:32:58.811Z,101709.24
2018-06-20T04:35:24.779Z,101716.88
2018-06-20T04:37:50.741Z,101717.00
2018-06-20T04:40:16.760Z,101710.73
2018-06-20T04:42:42.744Z,101709.88
2018-06-20T04:45:08.733Z,101709.73
2018-06-20T04:47:34.723Z,101708.41
2018-06-20T04:50:00.881Z,101706.75
2018-06-20T04:52:26.843Z,101706.19
2018-06-20T04:54:52.819Z,101708.21
2018-06-20T04:57:18.793Z,101709.61
2018-06-20T04:59:44.749Z,101715.97
2018-06-20T05:02:11.843Z,101704.93
2018-06-20T05:04:37.803Z,101704.30
2018-06-20T05:07:03.772Z,101702.77
2018-06-20T05:09:29.782Z,101702.20
2018-06-20T05:11:55.764Z,101703.24
2018-06-20T05:14:21.750Z,101699.76
2018-06-20T05:16:47.713Z,101701.91
2018-06-20T05:19:13.665Z,101705.56
2018-06-20T05:21:39.640Z,101709.61
2018-06-20T05:24:05.665Z,101718.83
2018-06-20T05:26:31.645Z,101714.55
2018-06-20T05:28:57.625Z,101707.36
2018-06-20T05:31:23.587Z,101703.11
2018-06-20T05:33:49.562Z,101705.13
2018-06-20T05:36:15.570Z,101712.39
2018-06-20T05:38:41.571Z,101708.21
2018-06-20T05:41:07.589Z,101708.34
2018-06-20T05:43:33.564Z,101706.05
2018-06-20T05:45:59.516Z,101706.95
2018-06-20T05:48:25.523Z,101703.97
2018-06-20T05:50:51.497Z,101701.28
2018-06-20T05:53:17.476Z,101703.31
2018-06-20T05:55:43.435Z,101692.79
2018-06-20T05:58:09.501Z,101696.41
2018-06-20T06:00:35.513Z,101700.84
2018-06-20T06:03:01.492Z,101701.13
2018-06-20T06:05:27.484Z,101708.25
2018-06-20T06:07:53.442Z,101702.75
2018-06-20T06:10:19.455Z,101703.97
2018-06-20T06:12:45.417Z,101707.92
2018-06-20T06:15:11.379Z,101705.07
2018-06-20T06:17:37.351Z,101700.19
2018-06-20T06:20:03.343Z,101704.77
2018-06-20T06:22:29.333Z,101695.78
2018-06-20T06:24:55.413Z,101697.05
2018-06-20T06:27:21.419Z,101693.55
2018-06-20T06:29:47.391Z,101698.50
2018-06-20T06:32:13.340Z,101698.47
2018-06-20T06:34:39.309Z,101687.48
2018-06-20T06:37:05.299Z,101692.96
2018-06-20T06:39:31.391Z,101692.47
2018-06-20T06:41:57.409Z,101691.14
2018-06-20T06:44:23.436Z,101695.45
2018-06-20T06:46:49.410Z,101695.38
2018-06-20T06:49:15.355Z,101694.82
2018-06-20T06:51:41.316Z,101699.59
2018-06-20T06:54:07.327Z,101692.26
2018-06-20T06:56:33.315Z,101694.89
2018-06-20T06:58:59.293Z,101685.80
2018-06-20T07:01:25.282Z,101685.23
2018-06-20T07:03:51.254Z,101689.58
2018-06-20T07:06:17.243Z,101688.58
2018-06-20T07:08:43.202Z,101692.80
2018-06-20T07:11:09.164Z,101687.22
2018-06-20T07:13:35.164Z,101689.88
2018-06-20T07:16:01.137Z,101686.69
2018-06-20T07:18:27.737Z,101687.62
2018-06-20T07:20:54.272Z,101689.28
2018-06-20T07:23:20.711Z,101692.03
2018-06-20T07:25:46.668Z,101691.89
2018-06-20T07:28:12.645Z,101683.47
2018-06-20T07:30:40.816Z,101686.98
2018-06-20T07:33:06.745Z,101683.53
2018-06-20T07:35:32.750Z,101679.30
2018-06-20T07:37:58.740Z,101681.44
2018-06-20T07:40:24.712Z,101680.92
2018-06-20T07:42:50.696Z,101678.66
2018-06-20T07:45:16.674Z,101673.36
2018-06-20T07:47:42.637Z,101668.05
2018-06-20T07:50:08.617Z,101674.48
2018-06-20T07:52:34.582Z,101673.84
2018-06-20T07:55:00.599Z,101672.79
2018-06-20T07:57:26.569Z,101666.78
2018-06-20T07:59:52.561Z,101670.90
2018-06-20T08:02:18.622Z,101669.44
2018-06-20T08:04:44.594Z,101670.59
2018-06-20T08:07:10.610Z,101670.19
2018-06-20T08:09:36.595Z,101668.41
2018-06-20T08:12:02.599Z,101669.70
2018-06-20T08:14:28.560Z,101662.59
2018-06-20T08:16:54.572Z,101654.33
2018-06-20T08:19:20.565Z,101660.70
2018-06-20T08:21:46.532Z,101660.27
2018-06-20T08:24:12.503Z,101653.44
2018-06-20T08:26:38.487Z,101665.05
2018-06-20T08:29:04.457Z,101669.75
2018-06-20T08:31:30.435Z,101656.98
2018-06-20T08:33:56.487Z,101662.16
2018-06-20T08:36:22.475Z,101664.34
2018-06-20T08:38:48.467Z,101659.94
2018-06-20T08:41:14.587Z,101652.30
2018-06-20T08:43:40.569Z,101657.28
2018-06-20T08:46:06.527Z,101658.06
2018-06-20T08:48:32.509Z,101659.50
2018-06-20T08:50:58.484Z,101651.17
2018-06-20T08:53:24.523Z,101656.28
2018-06-20T08:55:50.508Z,101657.51
2018-06-20T08:58:16.476Z,101650.87
2018-06-20T09:00:43.093Z,101647.19
2018-06-20T09:03:10.062Z,101640.03
2018-06-20T09:05:36.043Z,101639.39
2018-06-20T09:08:02.030Z,101642.88
2018-06-20T09:10:28.024Z,101636.38
2018-06-20T09:12:53.974Z,101637.02
2018-06-20T09:15:19.966Z,101635.94
2018-06-20T09:17:45.927Z,101635.69
2018-06-20T09:20:11.876Z,101628.55
2018-06-20T09:22:37.870Z,101628.00
2018-06-20T09:25:03.833Z,101623.55
2018-06-20T09:27:29.858Z,101621.91
2018-06-20T09:29:55.877Z,101622.72
2018-06-20T09:32:21.841Z,101620.08
2018-06-20T09:34:47.840Z,101619.08
2018-06-20T09:37:13.813Z,101614.63
2018-06-20T09:39:39.905Z,101613.84
2018-06-20T09:42:05.852Z,101615.16
2018-06-20T09:44:31.847Z,101608.53
2018-06-20T09:46:57.807Z,101606.79
2018-06-20T09:49:23.868Z,101606.56
2018-06-20T09:51:49.836Z,101615.36
2018-06-20T09:54:15.902Z,101614.53
2018-06-20T09:56:41.853Z,101607.98
2018-06-20T09:59:07.837Z,101608.17
2018-06-20T10:01:33.826Z,101603.77
2018-06-20T10:03:59.754Z,101611.48
2018-06-20T10:06:25.733Z,101607.88
2018-06-20T10:08:51.720Z,101600.34
2018-06-20T10:11:17.740Z,101594.62
2018-06-20T10:13:43.680Z,101591.47
2018-06-20T10:16:09.684Z,101593.39
2018-06-20T10:18:35.681Z,101585.75
2018-06-20T10:21:01.709Z,101594.73
2018-06-20T10:23:27.668Z,101588.45
2018-06-20T10:25:54.637Z,101581.77
2018-06-20T10:28:20.630Z,101584.42
2018-06-20T10:30:46.614Z,101578.34
2018-06-20T10:33:12.615Z,101573.30
2018-06-20T10:35:38.593Z,101578.67
2018-06-20T10:38:04.597Z,101573.86
2018-06-20T10:40:30.575Z,101574.83
2018-06-20T10:42:56.569Z,101570.02
2018-06-20T10:45:22.628Z,101567.36
2018-06-20T10:47:48.598Z,101569.96
2018-06-20T10:50:14.643Z,101567.05
2018-06-20T10:52:40.640Z,101562.69
2018-06-20T10:55:06.619Z,101568.69
2018-06-20T10:57:32.600Z,101562.36
2018-06-20T10:59:58.557Z,101555.72
2018-06-20T11:02:24.546Z,101552.91
2018-06-20T11:04:50.539Z,101549.73
2018-06-20T11:07:16.554Z,101542.84
2018-06-20T11:09:42.532Z,101538.03
2018-06-20T11:12:08.488Z,101543.91
2018-06-20T11:14:34.514Z,101545.04
2018-06-20T11:17:00.543Z,101533.23
2018-06-20T11:19:26.501Z,101530.25
2018-06-20T11:21:52.568Z,101533.23
2018-06-20T11:24:18.554Z,101534.66
2018-06-20T11:26:44.540Z,101528.42
2018-06-20T11:29:10.582Z,101526.86
2018-06-20T11:31:36.500Z,101521.63
2018-06-20T11:34:02.472Z,101525.42
2018-06-20T11:36:28.458Z,101521.75
2018-06-20T11:38:54.436Z,101514.86
2018-06-20T11:41:20.382Z,101514.62
2018-06-20T11:43:46.362Z,101514.75
2018-06-20T11:46:12.359Z,101497.25
2018-06-20T11:48:38.452Z,101497.25
2018-06-20T11:51:04.431Z,101495.00
2018-06-20T11:53:30.404Z,101493.84
2018-06-20T11:55:56.359Z,101491.94
2018-06-20T11:58:22.323Z,101490.38
2018-06-20T12:00:48.320Z,101488.87
2018-06-20T12:03:14.301Z,101483.48
2018-06-20T12:05:40.294Z,101479.03
2018-06-20T12:08:06.262Z,101474.41
2018-06-20T12:10:32.249Z,101468.05
2018-06-20T12:12:58.200Z,101474.00
2018-06-20T12:15:24.156Z,101471.70
2018-06-20T12:17:50.124Z,101462.14
2018-06-20T12:20:16.086Z,101448.05
2018-06-20T12:22:42.011Z,101454.03
2018-06-20T12:25:07.981Z,101461.14
2018-06-20T12:27:33.937Z,101445.80
2018-06-20T12:29:59.936Z,101450.80
2018-06-20T12:32:25.929Z,101446.90
2018-06-20T12:34:51.894Z,101450.23
2018-06-20T12:37:17.848Z,101448.23
2018-06-20T12:39:43.803Z,101445.57
2018-06-20T12:42:09.777Z,101437.25
2018-06-20T12:44:35.759Z,101441.19
2018-06-20T12:47:01.784Z,101438.25
2018-06-20T12:49:27.748Z,101440.91
2018-06-20T12:51:53.742Z,101436.20
2018-06-20T12:54:19.708Z,101443.67
2018-06-20T12:56:45.692Z,101439.03
2018-06-20T12:59:11.656Z,101432.22
2018-06-20T13:01:37.659Z,101437.11
2018-06-20T13:04:03.695Z,101425.02
2018-06-20T13:06:29.600Z,101426.73
2018-06-20T13:08:55.565Z,101417.13
2018-06-20T13:11:21.551Z,101423.77
2018-06-20T13:13:47.530Z,101420.69
2018-06-20T13:16:13.529Z,101414.88
2018-06-20T13:18:39.521Z,101416.70
2018-06-20T13:21:05.536Z,101421.69
2018-06-20T13:23:31.514Z,101409.55
2018-06-20T13:25:57.492Z,101413.03
2018-06-20T13:28:23.489Z,101409.05
2018-06-20T13:30:49.456Z,101404.71
2018-06-20T13:33:15.421Z,101406.26
2018-06-20T13:35:41.381Z,101399.95
2018-06-20T13:38:07.391Z,101401.05
2018-06-20T13:40:33.396Z,101398.93
2018-06-20T13:42:59.390Z,101397.89
2018-06-20T13:45:25.476Z,101394.33
2018-06-20T13:47:51.478Z,101389.47
2018-06-20T13:50:18.542Z,101393.81
2018-06-20T13:52:45.580Z,101388.83
2018-06-20T13:55:11.617Z,101381.55
2018-06-20T13:57:37.674Z,101384.94
2018-06-20T14:00:03.662Z,101384.44
2018-06-20T14:02:29.746Z,101386.86
2018-06-20T14:04:55.752Z,101374.23
2018-06-20T14:07:21.755Z,101372.58
2018-06-20T14:09:47.737Z,101374.09
2018-06-20T14:12:13.724Z,101369.92
2018-06-20T14:14:39.692Z,101372.95
2018-06-20T14:17:05.649Z,101370.66
2018-06-20T14:19:31.719Z,101376.20
2018-06-20T14:21:58.866Z,101373.86
2018-06-20T14:24:24.836Z,101365.45
2018-06-20T14:26:50.806Z,101370.75
2018-06-20T14:29:16.782Z,101365.63
2018-06-20T14:31:42.788Z,101360.96
2018-06-20T14:34:08.744Z,101362.29
2018-06-20T14:36:34.735Z,101365.13
2018-06-20T14:39:00.699Z,101362.33
2018-06-20T14:41:26.657Z,101357.84
2018-06-20T14:43:52.653Z,101361.33
2018-06-20T14:46:18.646Z,101365.03
2018-06-20T14:48:44.681Z,101355.16
2018-06-20T14:51:10.653Z,101357.70
2018-06-20T14:53:36.616Z,101353.87
2018-06-20T14:56:02.575Z,101352.31
2018-06-20T14:58:28.535Z,101351.17
2018-06-20T15:00:54.571Z,101351.84
2018-06-20T15:03:20.568Z,101343.42
2018-06-20T15:05:46.528Z,101350.06
2018-06-20T15:08:12.496Z,101349.38
2018-06-20T15:10:38.469Z,101347.69
2018-06-20T15:13:04.461Z,101341.88
2018-06-20T15:15:30.491Z,101333.63
2018-06-20T15:17:56.461Z,101334.13
2018-06-20T15:20:22.448Z,101333.13
2018-06-20T15:22:48.419Z,101324.34
2018-06-20T15:25:14.367Z,101330.16
2018-06-20T15:27:40.349Z,101320.73
2018-06-20T15:30:06.325Z,101325.67
2018-06-20T15:32:32.291Z,101320.69
2018-06-20T15:34:58.303Z,101308.59
2018-06-20T15:37:24.260Z,101314.87
2018-06-20T15:39:50.228Z,101310.57
2018-06-20T15:42:16.206Z,101301.92
2018-06-20T15:44:42.216Z,101299.98
2018-06-20T15:47:08.179Z,101305.27
2018-06-20T15:49:34.151Z,101289.34
2018-06-20T15:52:00.116Z,101297.80
2018-06-20T15:54:26.124Z,101298.63
2018-06-20T15:56:52.104Z,101298.48
2018-06-20T15:59:18.058Z,101291.66
2018-06-20T16:01:44.021Z,101294.97
2018-06-20T16:04:10.001Z,101290.34
2018-06-20T16:06:35.979Z,101289.84
2018-06-20T16:09:01.985Z,101284.89
2018-06-20T16:11:27.988Z,101279.73
2018-06-20T16:13:53.958Z,101266.45
2018-06-20T16:16:19.995Z,101276.75
2018-06-20T16:18:45.974Z,101276.06
2018-06-20T16:21:12.040Z,101276.09
2018-06-20T16:23:37.991Z,101268.75
2018-06-20T16:26:03.977Z,101275.06
2018-06-20T16:28:29.951Z,101262.47
2018-06-20T16:30:56.005Z,101266.63
2018-06-20T16:33:22.081Z,101266.09
2018-06-20T16:35:48.056Z,101261.78
2018-06-20T16:38:14.013Z,101268.09
2018-06-20T16:40:40.150Z,101263.62
2018-06-20T16:43:06.132Z,101265.13
2018-06-20T16:45:32.102Z,101269.10
2018-06-20T16:47:58.068Z,101268.56
2018-06-20T16:50:24.025Z,101267.87
2018-06-20T16:52:50.016Z,101263.36
2018-06-20T16:55:15.994Z,101254.39
2018-06-20T16:57:41.957Z,101254.92
2018-06-20T17:00:07.963Z,101253.03
2018-06-20T17:02:33.990Z,101246.43
2018-06-20T17:04:59.970Z,101254.69
2018-06-20T17:07:25.983Z,101247.76
2018-06-20T17:09:51.965Z,101236.78
2018-06-20T17:12:17.998Z,101244.92
2018-06-20T17:14:43.976Z,101241.77
2018-06-20T17:17:09.980Z,101239.64
2018-06-20T17:19:35.988Z,101238.97
2018-06-20T17:22:02.010Z,101238.61
2018-06-20T17:24:27.990Z,101232.95
2018-06-20T17:26:53.982Z,101232.63
2018-06-20T17:29:19.921Z,101232.63
2018-06-20T17:31:45.919Z,101229.29
2018-06-20T17:34:11.903Z,101225.95
2018-06-20T17:36:37.893Z,101221.00
2018-06-20T17:39:03.903Z,101225.66
2018-06-20T17:41:29.906Z,101220.68
2018-06-20T17:43:56.001Z,101227.45
2018-06-20T17:46:22.047Z,101217.02
2018-06-20T17:48:47.968Z,101220.03
2018-06-20T17:51:13.971Z,101216.87
2018-06-20T17:53:39.940Z,101210.74
2018-06-20T17:56:05.911Z,101204.42
2018-06-20T17:58:31.903Z,101205.58
2018-06-20T18:00:57.895Z,101202.95
2018-06-20T18:03:23.867Z,101209.94
2018-06-20T18:05:49.844Z,101204.30
2018-06-20T18:08:15.830Z,101197.48
2018-06-20T18:10:41.800Z,101201.64
2018-06-20T18:13:07.834Z,101197.11
2018-06-20T18:15:33.844Z,101206.41
2018-06-20T18:17:59.840Z,101196.14
2018-06-20T18:20:25.824Z,101192.48
2018-06-20T18:22:51.828Z,101198.44
2018-06-20T18:25:17.798Z,101193.01
2018-06-20T18:27:43.793Z,101190.36
2018-06-20T18:30:09.806Z,101194.98
2018-06-20T18:32:35.791Z,101188.20
2018-06-20T18:35:01.794Z,101185.90
2018-06-20T18:37:27.808Z,101181.53
2018-06-20T18:39:53.786Z,101186.52
2018-06-20T18:42:19.749Z,101187.70
2018-06-20T18:44:45.734Z,101186.05
2018-06-20T18:47:11.723Z,101189.35
2018-06-20T18:49:37.713Z,101188.02
2018-06-20T18:52:03.668Z,101190.86
2018-06-20T18:54:29.667Z,101185.20
2018-06-20T18:56:55.685Z,101181.69
2018-06-20T18:59:21.664Z,101185.67
2018-06-20T19:01:47.646Z,101179.50
2018-06-20T19:04:13.621Z,101180.54
2018-06-20T19:06:39.607Z,101177.73
2018-06-20T19:09:05.733Z,101172.92
2018-06-20T19:11:31.597Z,101178.56
2018-06-20T19:13:57.558Z,101180.23
2018-06-20T19:16:23.513Z,101171.92
2018-06-20T19:18:49.475Z,101179.23
2018-06-20T19:21:15.456Z,101173.92
2018-06-20T19:23:41.442Z,101178.25
2018-06-20T19:26:07.421Z,101174.62
2018-06-20T19:28:33.393Z,101175.27
2018-06-20T19:30:59.457Z,101177.60
2018-06-20T19:33:25.446Z,101174.92
2018-06-20T19:35:51.465Z,101182.73
2018-06-20T19:38:17.469Z,101176.08
2018-06-20T19:40:44.985Z,101179.21
2018-06-20T19:43:10.990Z,101174.88
2018-06-20T19:45:36.996Z,101181.69
2018-06-20T19:48:02.959Z,101182.52
2018-06-20T19:50:28.936Z,101183.66
2018-06-20T19:52:54.944Z,101183.20
2018-06-20T19:55:20.952Z,101182.04
2018-06-20T19:57:47.018Z,101185.49
2018-06-20T20:00:13.004Z,101186.17
2018-06-20T20:02:39.145Z,101188.83
2018-06-20T20:05:05.264Z,101194.10
2018-06-20T20:07:31.338Z,101201.59
2018-06-20T20:09:57.324Z,101197.94
2018-06-20T20:12:23.394Z,101198.27
2018-06-20T20:14:49.489Z,101205.40
2018-06-20T20:17:15.427Z,101201.59
2018-06-20T20:19:41.433Z,101206.23
2018-06-20T20:22:07.424Z,101207.88
2018-06-20T20:24:33.380Z,101205.73
2018-06-20T20:26:59.488Z,101209.38
2018-06-20T20:29:25.503Z,101211.36
2018-06-20T20:31:51.478Z,101210.53
2018-06-20T20:34:17.473Z,101211.06
2018-06-20T20:36:43.448Z,101204.92
2018-06-20T20:39:09.448Z,101205.73
2018-06-20T20:41:35.404Z,101210.70
2018-06-20T20:44:01.360Z,101207.20
2018-06-20T20:46:27.364Z,101202.89
2018-06-20T20:48:53.327Z,101200.27
2018-06-20T20:51:19.288Z,101202.42
2018-06-20T20:53:45.260Z,101199.95
2018-06-20T20:56:11.257Z,101199.95
2018-06-20T20:58:37.376Z,101199.12
2018-06-20T21:01:03.337Z,101203.10
2018-06-20T21:03:29.299Z,101201.09
2018-06-20T21:05:55.332Z,101197.30
2018-06-20T21:08:21.301Z,101204.10
2018-06-20T21:10:47.273Z,101197.47
2018-06-20T21:13:13.272Z,101203.92
2018-06-20T21:15:39.340Z,101199.30
2018-06-20T21:18:05.307Z,101202.24
2018-06-20T21:20:31.266Z,101201.09
2018-06-20T21:22:57.267Z,101198.77
2018-06-20T21:25:23.236Z,101197.77
2018-06-20T21:27:49.274Z,101197.59
2018-06-20T21:30:15.254Z,101191.92
2018-06-20T21:32:41.216Z,101193.28
2018-06-20T21:35:07.206Z,101194.14
2018-06-20T21:37:33.245Z,101187.65
2018-06-20T21:39:59.238Z,101186.82
2018-06-20T21:42:25.222Z,101184.17
2018-06-20T21:44:51.191Z,101188.30
2018-06-20T21:47:17.152Z,101185.50
2018-06-20T21:49:43.150Z,101187.65
2018-06-20T21:52:09.120Z,101188.12
2018-06-20T21:54:35.078Z,101190.27
2018-06-20T21:57:01.061Z,101184.46
2018-06-20T21:59:27.029Z,101180.19
2018-06-20T22:01:53.091Z,101186.64
2018-06-20T22:04:19.052Z,101188.15
2018-06-20T22:06:45.023Z,101186.47
2018-06-20T22:09:11.021Z,101190.45
2018-06-20T22:11:36.982Z,101187.47
2018-06-20T22:14:02.955Z,101183.73
2018-06-20T22:16:28.938Z,101183.84
2018-06-20T22:18:54.912Z,101181.84
2018-06-20T22:21:21.103Z,101177.53
2018-06-20T22:23:47.076Z,101173.05
2018-06-20T22:26:13.053Z,101171.88
2018-06-20T22:28:39.004Z,101167.56
2018-06-20T22:31:04.976Z,101166.77
2018-06-20T22:33:30.953Z,101162.25
2018-06-20T22:35:56.934Z,101161.12
2018-06-20T22:38:22.887Z,101153.57
2018-06-20T22:40:50.435Z,101159.34
2018-06-20T22:43:16.424Z,101153.84
2018-06-20T22:45:42.419Z,101153.98
2018-06-20T22:48:08.382Z,101151.19
2018-06-20T22:50:34.347Z,101152.34
2018-06-20T22:53:00.313Z,101149.36
2018-06-20T22:55:26.316Z,101144.05
2018-06-20T22:57:52.278Z,101143.72
2018-06-20T23:00:18.254Z,101135.91
2018-06-20T23:02:44.205Z,101135.91
2018-06-20T23:05:10.189Z,101133.76
2018-06-20T23:07:36.153Z,101131.61
2018-06-20T23:10:02.110Z,101134.44
2018-06-20T23:12:28.076Z,101133.61
2018-06-20T23:14:54.592Z,101140.08
2018-06-20T23:17:20.824Z,101144.70
2018-06-20T23:19:46.797Z,101137.91
2018-06-20T23:22:12.777Z,101132.28
2018-06-20T23:24:38.732Z,101138.73
2018-06-20T23:27:04.702Z,101141.95
2018-06-20T23:29:30.672Z,101135.41
2018-06-20T23:31:56.638Z,101135.24
2018-06-20T23:34:22.617Z,101144.70
2018-06-20T23:36:48.577Z,101142.88
2018-06-20T23:39:14.525Z,101143.55
2018-06-20T23:41:40.530Z,101134.73
2018-06-20T23:44:06.476Z,101135.41
2018-06-20T23:46:32.436Z,101136.73
2018-06-20T23:48:58.406Z,101137.56
2018-06-20T23:51:24.372Z,101146.03
2018-06-20T23:53:50.359Z,101145.70
2018-06-20T23:56:16.426Z,101146.67
2018-06-20T23:58:42.392Z,101142.05
